MMC YBAS-YPDN
Flight info
| Callsign | MMC |
|---|---|
| Flight time | 2h 17m |
| Altitude | 40000 |
| Route | RUPUS J251 TN Q23 VEGPU |
| Aircraft | LJ35/M-L/CB1 |
Departure
| Time | 2026-04-28 00:38 |
|---|---|
| Airport | Alice Springs Airport (YBAS) |
Arrival
| Time | 2026-04-28 02:56 |
|---|---|
| Airport | Darwin International Airport / RAAF Darwin (YPDN) |
| Time | Latitude | Longitude | Altitude | Speed | Heading |
|---|---|---|---|---|---|
| 2026-04-28 00:20 | -23.80462 | 133.90481 | 1787 ft | 0 kts | 28° |
| 2026-04-28 00:33 | -23.80460 | 133.90482 | 1787 ft | 2 kts | 28° |
| 2026-04-28 00:33 | -23.80432 | 133.90478 | 1787 ft | 7 kts | 304° |
| 2026-04-28 00:34 | -23.80426 | 133.90424 | 1787 ft | 9 kts | 212° |
| 2026-04-28 00:34 | -23.80467 | 133.90366 | 1787 ft | 12 kts | 298° |
| 2026-04-28 00:34 | -23.80418 | 133.90277 | 1787 ft | 16 kts | 300° |
| 2026-04-28 00:34 | -23.80356 | 133.90163 | 1787 ft | 19 kts | 301° |
| 2026-04-28 00:35 | -23.80287 | 133.90033 | 1787 ft | 22 kts | 300° |
| 2026-04-28 00:35 | -23.80213 | 133.89897 | 1787 ft | 17 kts | 299° |
| 2026-04-28 00:35 | -23.80150 | 133.89777 | 1787 ft | 20 kts | 301° |
| 2026-04-28 00:35 | -23.80075 | 133.89639 | 1787 ft | 23 kts | 300° |
| 2026-04-28 00:36 | -23.79998 | 133.89495 | 1787 ft | 13 kts | 301° |
| 2026-04-28 00:36 | -23.79989 | 133.89391 | 1787 ft | 16 kts | 245° |
| 2026-04-28 00:36 | -23.80043 | 133.89293 | 1787 ft | 13 kts | 237° |
| 2026-04-28 00:36 | -23.80093 | 133.89317 | 1787 ft | 12 kts | 122° |
| 2026-04-28 00:37 | -23.80109 | 133.89345 | 1787 ft | 0 kts | 121° |
| 2026-04-28 00:37 | -23.80140 | 133.89404 | 1786 ft | 41 kts | 120° |
| 2026-04-28 00:37 | -23.80457 | 133.89994 | 1785 ft | 138 kts | 120° |
| 2026-04-28 00:38 | -23.81058 | 133.91122 | 2159 ft | 195 kts | 120° |
| 2026-04-28 00:38 | -23.81677 | 133.92559 | 2989 ft | 219 kts | 102° |
| 2026-04-28 00:38 | -23.81576 | 133.94208 | 4134 ft | 222 kts | 70° |
| 2026-04-28 00:38 | -23.80637 | 133.95535 | 5298 ft | 228 kts | 39° |
| 2026-04-28 00:39 | -23.79116 | 133.96143 | 6399 ft | 245 kts | 7° |
| 2026-04-28 00:39 | -23.77365 | 133.95833 | 7328 ft | 269 kts | 339° |
| 2026-04-28 00:39 | -23.75718 | 133.94689 | 8135 ft | 291 kts | 322° |
| 2026-04-28 00:39 | -23.74164 | 133.93287 | 9373 ft | 294 kts | 320° |
| 2026-04-28 00:40 | -23.72567 | 133.91829 | 10410 ft | 304 kts | 319° |
| 2026-04-28 00:40 | -23.70921 | 133.90344 | 11440 ft | 309 kts | 319° |
| 2026-04-28 00:40 | -23.69248 | 133.88843 | 12472 ft | 314 kts | 319° |
| 2026-04-28 00:40 | -23.67543 | 133.87323 | 13502 ft | 319 kts | 319° |
| 2026-04-28 00:41 | -23.65687 | 133.85958 | 14451 ft | 325 kts | 333° |
| 2026-04-28 00:41 | -23.63555 | 133.85072 | 15375 ft | 330 kts | 345° |
| 2026-04-28 00:41 | -23.61283 | 133.84654 | 16299 ft | 334 kts | 354° |
| 2026-04-28 00:41 | -23.58964 | 133.84344 | 17206 ft | 338 kts | 352° |
| 2026-04-28 00:42 | -23.56628 | 133.83938 | 18111 ft | 342 kts | 349° |
| 2026-04-28 00:42 | -23.54303 | 133.83493 | 18923 ft | 346 kts | 349° |
| 2026-04-28 00:42 | -23.51908 | 133.83076 | 19698 ft | 349 kts | 350° |
| 2026-04-28 00:42 | -23.49496 | 133.82677 | 20498 ft | 352 kts | 350° |
| 2026-04-28 00:43 | -23.47070 | 133.82262 | 21288 ft | 355 kts | 349° |
| 2026-04-28 00:43 | -23.44612 | 133.81832 | 22081 ft | 359 kts | 349° |
| 2026-04-28 00:43 | -23.42139 | 133.81403 | 22867 ft | 362 kts | 348° |
| 2026-04-28 00:43 | -23.39637 | 133.80974 | 23649 ft | 366 kts | 348° |
| 2026-04-28 00:44 | -23.37112 | 133.80540 | 24310 ft | 369 kts | 348° |
| 2026-04-28 00:44 | -23.34562 | 133.80100 | 24947 ft | 373 kts | 348° |
| 2026-04-28 00:44 | -23.31988 | 133.79657 | 25575 ft | 377 kts | 348° |
| 2026-04-28 00:44 | -23.29383 | 133.79208 | 26205 ft | 381 kts | 347° |
| 2026-04-28 00:45 | -23.26752 | 133.78756 | 26835 ft | 385 kts | 347° |
| 2026-04-28 00:45 | -23.24095 | 133.78299 | 27470 ft | 389 kts | 347° |
| 2026-04-28 00:45 | -23.21412 | 133.77839 | 28087 ft | 393 kts | 347° |
| 2026-04-28 00:45 | -23.18697 | 133.77372 | 28706 ft | 397 kts | 347° |
| 2026-04-28 00:46 | -23.15954 | 133.76902 | 29324 ft | 401 kts | 347° |
| 2026-04-28 00:46 | -23.13183 | 133.76426 | 29923 ft | 405 kts | 347° |
| 2026-04-28 00:46 | -23.10377 | 133.75944 | 30466 ft | 409 kts | 347° |
| 2026-04-28 00:46 | -23.07555 | 133.75460 | 30949 ft | 413 kts | 347° |
| 2026-04-28 00:47 | -23.04696 | 133.74971 | 31410 ft | 418 kts | 347° |
| 2026-04-28 00:47 | -23.01802 | 133.74476 | 31869 ft | 422 kts | 347° |
| 2026-04-28 00:47 | -22.98894 | 133.73977 | 32314 ft | 426 kts | 347° |
| 2026-04-28 00:47 | -22.95943 | 133.73472 | 32742 ft | 430 kts | 347° |
| 2026-04-28 00:48 | -22.92978 | 133.72966 | 33175 ft | 434 kts | 347° |
| 2026-04-28 00:48 | -22.90013 | 133.72458 | 33593 ft | 438 kts | 347° |
| 2026-04-28 00:48 | -22.86988 | 133.71941 | 34008 ft | 442 kts | 347° |
| 2026-04-28 00:48 | -22.83936 | 133.71421 | 34379 ft | 446 kts | 347° |
| 2026-04-28 00:49 | -22.80862 | 133.70897 | 34751 ft | 448 kts | 347° |
| 2026-04-28 00:49 | -22.77777 | 133.70370 | 35126 ft | 451 kts | 347° |
| 2026-04-28 00:49 | -22.74660 | 133.69837 | 35476 ft | 454 kts | 346° |
| 2026-04-28 00:49 | -22.71532 | 133.69303 | 35836 ft | 456 kts | 346° |
| 2026-04-28 00:50 | -22.68386 | 133.68765 | 36178 ft | 459 kts | 346° |
| 2026-04-28 00:50 | -22.65225 | 133.68227 | 36516 ft | 462 kts | 346° |
| 2026-04-28 00:50 | -22.62042 | 133.67686 | 36849 ft | 464 kts | 345° |
| 2026-04-28 00:50 | -22.58835 | 133.67138 | 37173 ft | 467 kts | 345° |
| 2026-04-28 00:51 | -22.55617 | 133.66590 | 37503 ft | 469 kts | 345° |
| 2026-04-28 00:51 | -22.52384 | 133.66041 | 37803 ft | 472 kts | 345° |
| 2026-04-28 00:51 | -22.49132 | 133.65490 | 38071 ft | 474 kts | 345° |
| 2026-04-28 00:51 | -22.45863 | 133.64934 | 38321 ft | 476 kts | 345° |
| 2026-04-28 00:52 | -22.42588 | 133.64378 | 38686 ft | 476 kts | 345° |
| 2026-04-28 00:52 | -22.39325 | 133.63827 | 39077 ft | 473 kts | 345° |
| 2026-04-28 00:52 | -22.36081 | 133.63277 | 39448 ft | 471 kts | 344° |
| 2026-04-28 00:52 | -22.32845 | 133.62726 | 39812 ft | 469 kts | 344° |
| 2026-04-28 00:53 | -22.29626 | 133.62179 | 40158 ft | 468 kts | 344° |
| 2026-04-28 00:53 | -22.23141 | 133.61076 | 40183 ft | 481 kts | 344° |
| 2026-04-28 00:54 | -22.16470 | 133.59954 | 40188 ft | 487 kts | 345° |
| 2026-04-28 00:54 | -22.09766 | 133.58819 | 40197 ft | 488 kts | 345° |
| 2026-04-28 00:55 | -22.03047 | 133.57685 | 40177 ft | 488 kts | 345° |
| 2026-04-28 00:55 | -21.96328 | 133.56551 | 40180 ft | 489 kts | 345° |
| 2026-04-28 00:56 | -21.89635 | 133.55415 | 40183 ft | 484 kts | 344° |
| 2026-04-28 00:56 | -21.83034 | 133.54303 | 40177 ft | 482 kts | 345° |
| 2026-04-28 00:57 | -21.76409 | 133.53190 | 40172 ft | 481 kts | 344° |
| 2026-04-28 00:57 | -21.69798 | 133.52077 | 40169 ft | 481 kts | 344° |
| 2026-04-28 00:58 | -21.63181 | 133.50967 | 40170 ft | 481 kts | 344° |
| 2026-04-28 00:58 | -21.56550 | 133.49853 | 40169 ft | 481 kts | 345° |
| 2026-04-28 00:59 | -21.49927 | 133.48744 | 40163 ft | 482 kts | 344° |
| 2026-04-28 00:59 | -21.43301 | 133.47634 | 40160 ft | 482 kts | 345° |
| 2026-04-28 01:00 | -21.36710 | 133.46531 | 40158 ft | 482 kts | 345° |
| 2026-04-28 01:00 | -21.30075 | 133.45422 | 40155 ft | 482 kts | 345° |
| 2026-04-28 01:01 | -21.23438 | 133.44318 | 40150 ft | 483 kts | 345° |
| 2026-04-28 01:01 | -21.16801 | 133.43213 | 40147 ft | 482 kts | 345° |
| 2026-04-28 01:02 | -21.10175 | 133.42112 | 40150 ft | 481 kts | 345° |
| 2026-04-28 01:02 | -21.03564 | 133.41013 | 40146 ft | 481 kts | 345° |
| 2026-04-28 01:03 | -20.96949 | 133.39915 | 40144 ft | 480 kts | 345° |
| 2026-04-28 01:03 | -20.90334 | 133.38818 | 40146 ft | 480 kts | 345° |
| 2026-04-28 01:04 | -20.83728 | 133.37724 | 40141 ft | 480 kts | 345° |
| 2026-04-28 01:04 | -20.77159 | 133.36636 | 40141 ft | 480 kts | 345° |
| 2026-04-28 01:05 | -20.70546 | 133.35543 | 40127 ft | 480 kts | 345° |
| 2026-04-28 01:05 | -20.63950 | 133.34453 | 40138 ft | 479 kts | 345° |
| 2026-04-28 01:06 | -20.57369 | 133.33367 | 40138 ft | 478 kts | 345° |
| 2026-04-28 01:06 | -20.50789 | 133.32281 | 40137 ft | 478 kts | 345° |
| 2026-04-28 01:07 | -20.44218 | 133.31198 | 40136 ft | 477 kts | 345° |
| 2026-04-28 01:07 | -20.37655 | 133.30118 | 40126 ft | 477 kts | 345° |
| 2026-04-28 01:08 | -20.31098 | 133.29039 | 40128 ft | 477 kts | 345° |
| 2026-04-28 01:08 | -20.25649 | 133.28143 | 40129 ft | 476 kts | 345° |
| 2026-04-28 01:09 | -20.19099 | 133.27068 | 40125 ft | 476 kts | 345° |
| 2026-04-28 01:09 | -20.12550 | 133.25993 | 40126 ft | 476 kts | 345° |
| 2026-04-28 01:10 | -20.05999 | 133.24919 | 40119 ft | 476 kts | 345° |
| 2026-04-28 01:10 | -19.99451 | 133.23845 | 40120 ft | 476 kts | 345° |
| 2026-04-28 01:11 | -19.92906 | 133.22774 | 40115 ft | 476 kts | 345° |
| 2026-04-28 01:11 | -19.86406 | 133.21719 | 40113 ft | 476 kts | 345° |
| 2026-04-28 01:12 | -19.79813 | 133.20640 | 40111 ft | 475 kts | 345° |
| 2026-04-28 01:12 | -19.73320 | 133.19579 | 40113 ft | 476 kts | 345° |
| 2026-04-28 01:13 | -19.66774 | 133.18513 | 40112 ft | 476 kts | 345° |
| 2026-04-28 01:13 | -19.56961 | 133.16913 | 40109 ft | 476 kts | 345° |
| 2026-04-28 01:14 | -19.50410 | 133.15845 | 40103 ft | 476 kts | 345° |
| 2026-04-28 01:14 | -19.43866 | 133.14782 | 40105 ft | 476 kts | 345° |
| 2026-04-28 01:15 | -19.37324 | 133.13717 | 40103 ft | 476 kts | 345° |
| 2026-04-28 01:15 | -19.30818 | 133.12661 | 40103 ft | 476 kts | 345° |
| 2026-04-28 01:16 | -19.24282 | 133.11600 | 40098 ft | 475 kts | 345° |
| 2026-04-28 01:16 | -19.17741 | 133.10540 | 40098 ft | 475 kts | 345° |
| 2026-04-28 01:17 | -19.11193 | 133.09478 | 40095 ft | 475 kts | 345° |
| 2026-04-28 01:17 | -19.04648 | 133.08419 | 40094 ft | 475 kts | 345° |
| 2026-04-28 01:18 | -18.98102 | 133.07360 | 40094 ft | 475 kts | 345° |
| 2026-04-28 01:18 | -18.91558 | 133.06302 | 40088 ft | 475 kts | 345° |
| 2026-04-28 01:19 | -18.85022 | 133.05247 | 40091 ft | 475 kts | 345° |
| 2026-04-28 01:19 | -18.78494 | 133.04192 | 40083 ft | 475 kts | 346° |
| 2026-04-28 01:20 | -18.72009 | 133.03148 | 40083 ft | 474 kts | 346° |
| 2026-04-28 01:20 | -18.65486 | 133.02096 | 40089 ft | 474 kts | 346° |
| 2026-04-28 01:21 | -18.58966 | 133.01046 | 40086 ft | 474 kts | 346° |
| 2026-04-28 01:21 | -18.52442 | 132.99997 | 40081 ft | 474 kts | 346° |
| 2026-04-28 01:22 | -18.45929 | 132.98950 | 40081 ft | 474 kts | 346° |
| 2026-04-28 01:22 | -18.39413 | 132.97903 | 40080 ft | 474 kts | 346° |
| 2026-04-28 01:23 | -18.32891 | 132.96855 | 40078 ft | 473 kts | 346° |
| 2026-04-28 01:23 | -18.26387 | 132.95813 | 40078 ft | 473 kts | 346° |
| 2026-04-28 01:24 | -18.19872 | 132.94768 | 40075 ft | 473 kts | 346° |
| 2026-04-28 01:24 | -18.13370 | 132.93728 | 40078 ft | 473 kts | 346° |
| 2026-04-28 01:25 | -18.06864 | 132.92685 | 40074 ft | 473 kts | 346° |
| 2026-04-28 01:25 | -18.00392 | 132.91652 | 40075 ft | 473 kts | 346° |
| 2026-04-28 01:26 | -17.93887 | 132.90611 | 40074 ft | 473 kts | 346° |
| 2026-04-28 01:26 | -17.87380 | 132.89572 | 40075 ft | 473 kts | 346° |
| 2026-04-28 01:27 | -17.80875 | 132.88534 | 40073 ft | 473 kts | 346° |
| 2026-04-28 01:27 | -17.74369 | 132.87498 | 40073 ft | 473 kts | 346° |
| 2026-04-28 01:28 | -17.67858 | 132.86460 | 40072 ft | 473 kts | 346° |
| 2026-04-28 01:28 | -17.61347 | 132.85423 | 40069 ft | 473 kts | 346° |
| 2026-04-28 01:29 | -17.54845 | 132.84389 | 40069 ft | 473 kts | 346° |
| 2026-04-28 01:29 | -17.48336 | 132.83354 | 40069 ft | 473 kts | 346° |
| 2026-04-28 01:30 | -17.41866 | 132.82326 | 40071 ft | 473 kts | 346° |
| 2026-04-28 01:30 | -17.35357 | 132.81293 | 40072 ft | 473 kts | 346° |
| 2026-04-28 01:31 | -17.28848 | 132.80261 | 40074 ft | 473 kts | 346° |
| 2026-04-28 01:31 | -17.22332 | 132.79227 | 40069 ft | 473 kts | 346° |
| 2026-04-28 01:32 | -17.15814 | 132.78195 | 40072 ft | 473 kts | 346° |
| 2026-04-28 01:32 | -17.09308 | 132.77165 | 40068 ft | 473 kts | 346° |
| 2026-04-28 01:33 | -17.02803 | 132.76137 | 40065 ft | 473 kts | 346° |
| 2026-04-28 01:33 | -16.96298 | 132.75109 | 40065 ft | 473 kts | 346° |
| 2026-04-28 01:34 | -16.89791 | 132.74086 | 40062 ft | 473 kts | 346° |
| 2026-04-28 01:34 | -16.83293 | 132.73062 | 40062 ft | 472 kts | 346° |
| 2026-04-28 01:35 | -16.76844 | 132.72050 | 40057 ft | 472 kts | 346° |
| 2026-04-28 01:35 | -16.70344 | 132.71027 | 40057 ft | 471 kts | 346° |
| 2026-04-28 01:36 | -16.63861 | 132.70010 | 40049 ft | 472 kts | 346° |
| 2026-04-28 01:36 | -16.57377 | 132.68991 | 40047 ft | 471 kts | 346° |
| 2026-04-28 01:37 | -16.50895 | 132.67976 | 40047 ft | 470 kts | 346° |
| 2026-04-28 01:37 | -16.44427 | 132.66962 | 40047 ft | 470 kts | 346° |
| 2026-04-28 01:38 | -16.37955 | 132.65949 | 40036 ft | 470 kts | 346° |
| 2026-04-28 01:38 | -16.31525 | 132.64943 | 40045 ft | 470 kts | 347° |
| 2026-04-28 01:39 | -16.25056 | 132.63931 | 40042 ft | 470 kts | 347° |
| 2026-04-28 01:39 | -16.18587 | 132.62920 | 40039 ft | 470 kts | 347° |
| 2026-04-28 01:40 | -16.12115 | 132.61909 | 40042 ft | 470 kts | 347° |
| 2026-04-28 01:40 | -16.05649 | 132.60900 | 40037 ft | 470 kts | 347° |
| 2026-04-28 01:41 | -15.99186 | 132.59893 | 40037 ft | 470 kts | 347° |
| 2026-04-28 01:41 | -15.92722 | 132.58886 | 40037 ft | 470 kts | 347° |
| 2026-04-28 01:42 | -15.86259 | 132.57879 | 40035 ft | 469 kts | 347° |
| 2026-04-28 01:42 | -15.79796 | 132.56874 | 40034 ft | 469 kts | 347° |
| 2026-04-28 01:43 | -15.73338 | 132.55869 | 40036 ft | 470 kts | 347° |
| 2026-04-28 01:43 | -15.66918 | 132.54871 | 40034 ft | 470 kts | 347° |
| 2026-04-28 01:44 | -15.60454 | 132.53866 | 40028 ft | 469 kts | 347° |
| 2026-04-28 01:44 | -15.53993 | 132.52865 | 40026 ft | 469 kts | 347° |
| 2026-04-28 01:45 | -15.47540 | 132.51863 | 40023 ft | 469 kts | 347° |
| 2026-04-28 01:45 | -15.41092 | 132.50864 | 40024 ft | 469 kts | 347° |
| 2026-04-28 01:46 | -15.34643 | 132.49864 | 40021 ft | 468 kts | 347° |
| 2026-04-28 01:46 | -15.28191 | 132.48866 | 40019 ft | 468 kts | 347° |
| 2026-04-28 01:47 | -15.21747 | 132.47869 | 40022 ft | 468 kts | 347° |
| 2026-04-28 01:47 | -15.15300 | 132.46872 | 40025 ft | 468 kts | 347° |
| 2026-04-28 01:48 | -15.08865 | 132.45876 | 40019 ft | 468 kts | 347° |
| 2026-04-28 01:48 | -15.02430 | 132.44884 | 40018 ft | 467 kts | 347° |
| 2026-04-28 01:49 | -14.95995 | 132.43891 | 40021 ft | 467 kts | 347° |
| 2026-04-28 01:49 | -14.89567 | 132.42898 | 40022 ft | 467 kts | 348° |
| 2026-04-28 01:50 | -14.83178 | 132.41913 | 40011 ft | 466 kts | 348° |
| 2026-04-28 01:50 | -14.76764 | 132.40925 | 40013 ft | 466 kts | 348° |
| 2026-04-28 01:51 | -14.70347 | 132.39937 | 40011 ft | 466 kts | 348° |
| 2026-04-28 01:51 | -14.63930 | 132.38950 | 40014 ft | 466 kts | 348° |
| 2026-04-28 01:52 | -14.57519 | 132.37963 | 40010 ft | 466 kts | 348° |
| 2026-04-28 01:52 | -14.51103 | 132.36978 | 40013 ft | 466 kts | 348° |
| 2026-04-28 01:53 | -14.44696 | 132.35942 | 40018 ft | 466 kts | 347° |
| 2026-04-28 01:53 | -14.38293 | 132.34912 | 40005 ft | 466 kts | 348° |
| 2026-04-28 01:54 | -14.31888 | 132.33887 | 40005 ft | 465 kts | 348° |
| 2026-04-28 01:54 | -14.25487 | 132.32855 | 40004 ft | 465 kts | 347° |
| 2026-04-28 01:55 | -14.19453 | 132.30729 | 39996 ft | 456 kts | 328° |
| 2026-04-28 01:55 | -14.14232 | 132.27160 | 39996 ft | 453 kts | 322° |
| 2026-04-28 01:56 | -14.09023 | 132.23507 | 39995 ft | 453 kts | 322° |
| 2026-04-28 01:56 | -14.03817 | 132.19835 | 39995 ft | 453 kts | 322° |
| 2026-04-28 01:57 | -13.98615 | 132.16176 | 39995 ft | 453 kts | 322° |
| 2026-04-28 01:57 | -13.94251 | 132.13107 | 39996 ft | 453 kts | 322° |
| 2026-04-28 01:58 | -13.89072 | 132.09464 | 39992 ft | 453 kts | 322° |
| 2026-04-28 01:58 | -13.83863 | 132.05806 | 39985 ft | 453 kts | 323° |
| 2026-04-28 01:59 | -13.78646 | 132.02142 | 39985 ft | 453 kts | 323° |
| 2026-04-28 01:59 | -13.73430 | 131.98481 | 39985 ft | 453 kts | 323° |
| 2026-04-28 02:00 | -13.68237 | 131.94834 | 39734 ft | 451 kts | 322° |
| 2026-04-28 02:00 | -13.65643 | 131.93012 | 39382 ft | 452 kts | 323° |
| 2026-04-28 02:00 | -13.63037 | 131.91188 | 39035 ft | 454 kts | 323° |
| 2026-04-28 02:01 | -13.60426 | 131.89360 | 38700 ft | 455 kts | 323° |
| 2026-04-28 02:01 | -13.57840 | 131.87547 | 38318 ft | 455 kts | 323° |
| 2026-04-28 02:01 | -13.55214 | 131.85707 | 37763 ft | 459 kts | 323° |
| 2026-04-28 02:01 | -13.52559 | 131.83847 | 37157 ft | 463 kts | 323° |
| 2026-04-28 02:02 | -13.49896 | 131.81984 | 36566 ft | 465 kts | 323° |
| 2026-04-28 02:02 | -13.47204 | 131.80101 | 35966 ft | 468 kts | 322° |
| 2026-04-28 02:02 | -13.44511 | 131.78216 | 35387 ft | 469 kts | 322° |
| 2026-04-28 02:02 | -13.41812 | 131.76329 | 34817 ft | 471 kts | 323° |
| 2026-04-28 02:03 | -13.39096 | 131.74429 | 34258 ft | 472 kts | 323° |
| 2026-04-28 02:03 | -13.36380 | 131.72531 | 33670 ft | 473 kts | 323° |
| 2026-04-28 02:03 | -13.33658 | 131.70628 | 33050 ft | 474 kts | 323° |
| 2026-04-28 02:03 | -13.30929 | 131.68722 | 32444 ft | 475 kts | 323° |
| 2026-04-28 02:04 | -13.28195 | 131.66812 | 31826 ft | 477 kts | 323° |
| 2026-04-28 02:04 | -13.25447 | 131.64893 | 31167 ft | 479 kts | 323° |
| 2026-04-28 02:04 | -13.22685 | 131.62965 | 30510 ft | 481 kts | 323° |
| 2026-04-28 02:04 | -13.19914 | 131.61032 | 29820 ft | 483 kts | 323° |
| 2026-04-28 02:05 | -13.17132 | 131.59089 | 29040 ft | 484 kts | 324° |
| 2026-04-28 02:05 | -13.14340 | 131.57142 | 28285 ft | 483 kts | 324° |
| 2026-04-28 02:05 | -13.11597 | 131.55230 | 27558 ft | 483 kts | 324° |
| 2026-04-28 02:05 | -13.08820 | 131.53293 | 26841 ft | 482 kts | 324° |
| 2026-04-28 02:06 | -13.06053 | 131.51365 | 26149 ft | 482 kts | 324° |
| 2026-04-28 02:06 | -13.03280 | 131.49433 | 25465 ft | 482 kts | 324° |
| 2026-04-28 02:06 | -13.00504 | 131.47498 | 24800 ft | 483 kts | 325° |
| 2026-04-28 02:06 | -12.97718 | 131.45557 | 24150 ft | 485 kts | 325° |
| 2026-04-28 02:07 | -12.94924 | 131.43611 | 23502 ft | 487 kts | 325° |
| 2026-04-28 02:07 | -12.92106 | 131.41649 | 22737 ft | 492 kts | 325° |
| 2026-04-28 02:07 | -12.89262 | 131.39673 | 21996 ft | 496 kts | 325° |
| 2026-04-28 02:07 | -12.86399 | 131.37681 | 21303 ft | 498 kts | 324° |
| 2026-04-28 02:08 | -12.83536 | 131.35685 | 20668 ft | 496 kts | 324° |
| 2026-04-28 02:08 | -12.80696 | 131.33706 | 20045 ft | 491 kts | 324° |
| 2026-04-28 02:08 | -12.77890 | 131.31756 | 19436 ft | 484 kts | 324° |
| 2026-04-28 02:08 | -12.75119 | 131.29835 | 18830 ft | 478 kts | 324° |
| 2026-04-28 02:09 | -12.72380 | 131.27931 | 18230 ft | 474 kts | 324° |
| 2026-04-28 02:09 | -12.69659 | 131.26038 | 17547 ft | 471 kts | 324° |
| 2026-04-28 02:09 | -12.66956 | 131.24158 | 16879 ft | 468 kts | 324° |
| 2026-04-28 02:09 | -12.64286 | 131.22270 | 16220 ft | 464 kts | 322° |
| 2026-04-28 02:10 | -12.61985 | 131.19986 | 15552 ft | 458 kts | 308° |
| 2026-04-28 02:10 | -12.60225 | 131.17313 | 14943 ft | 449 kts | 296° |
| 2026-04-28 02:10 | -12.59041 | 131.14406 | 14345 ft | 438 kts | 287° |
| 2026-04-28 02:10 | -12.58084 | 131.11469 | 13766 ft | 432 kts | 286° |
| 2026-04-28 02:11 | -12.57135 | 131.08568 | 13116 ft | 427 kts | 287° |
| 2026-04-28 02:11 | -12.56180 | 131.05722 | 12485 ft | 412 kts | 288° |
| 2026-04-28 02:11 | -12.55284 | 131.03070 | 11848 ft | 377 kts | 287° |
| 2026-04-28 02:11 | -12.54471 | 131.00630 | 11230 ft | 349 kts | 287° |
| 2026-04-28 02:12 | -12.53724 | 130.98369 | 10752 ft | 324 kts | 286° |
| 2026-04-28 02:12 | -12.53024 | 130.96250 | 10271 ft | 305 kts | 287° |
| 2026-04-28 02:12 | -12.52356 | 130.94248 | 9798 ft | 291 kts | 287° |
| 2026-04-28 02:12 | -12.51716 | 130.92336 | 9342 ft | 282 kts | 286° |
| 2026-04-28 02:13 | -12.51092 | 130.90457 | 9026 ft | 278 kts | 287° |
| 2026-04-28 02:13 | -12.50472 | 130.88589 | 8730 ft | 276 kts | 287° |
| 2026-04-28 02:13 | -12.49855 | 130.86743 | 8499 ft | 273 kts | 287° |
| 2026-04-28 02:13 | -12.49245 | 130.84914 | 8270 ft | 270 kts | 287° |
| 2026-04-28 02:14 | -12.48634 | 130.83104 | 8049 ft | 268 kts | 287° |
| 2026-04-28 02:14 | -12.48034 | 130.81303 | 7829 ft | 268 kts | 287° |
| 2026-04-28 02:14 | -12.47423 | 130.79504 | 7605 ft | 268 kts | 288° |
| 2026-04-28 02:14 | -12.46808 | 130.77689 | 7302 ft | 272 kts | 288° |
| 2026-04-28 02:15 | -12.45577 | 130.74028 | 6659 ft | 263 kts | 287° |
| 2026-04-28 02:15 | -12.44997 | 130.72315 | 6323 ft | 248 kts | 287° |
| 2026-04-28 02:15 | -12.44448 | 130.70686 | 5963 ft | 237 kts | 287° |
| 2026-04-28 02:16 | -12.43919 | 130.69116 | 5601 ft | 230 kts | 288° |
| 2026-04-28 02:16 | -12.43301 | 130.67624 | 5228 ft | 228 kts | 302° |
| 2026-04-28 02:16 | -12.42195 | 130.66460 | 4867 ft | 233 kts | 325° |
| 2026-04-28 02:16 | -12.40718 | 130.65776 | 4505 ft | 236 kts | 349° |
| 2026-04-28 02:17 | -12.39086 | 130.65706 | 4147 ft | 235 kts | 12° |
| 2026-04-28 02:17 | -12.37577 | 130.66256 | 3801 ft | 227 kts | 35° |
| 2026-04-28 02:17 | -12.36432 | 130.67287 | 3455 ft | 214 kts | 55° |
| 2026-04-28 02:17 | -12.35758 | 130.68585 | 3109 ft | 201 kts | 75° |
| 2026-04-28 02:18 | -12.35649 | 130.69942 | 2964 ft | 183 kts | 95° |
| 2026-04-28 02:18 | -12.35830 | 130.71151 | 2955 ft | 165 kts | 104° |
| 2026-04-28 02:18 | -12.36144 | 130.72229 | 2952 ft | 152 kts | 107° |
| 2026-04-28 02:18 | -12.36467 | 130.73226 | 2940 ft | 145 kts | 108° |
| 2026-04-28 02:19 | -12.36794 | 130.74211 | 2781 ft | 149 kts | 109° |
| 2026-04-28 02:19 | -12.37137 | 130.75235 | 2579 ft | 155 kts | 108° |
| 2026-04-28 02:19 | -12.37491 | 130.76285 | 2384 ft | 157 kts | 108° |
| 2026-04-28 02:19 | -12.37844 | 130.77339 | 2192 ft | 159 kts | 108° |
| 2026-04-28 02:20 | -12.38202 | 130.78408 | 1995 ft | 158 kts | 108° |
| 2026-04-28 02:20 | -12.38555 | 130.79457 | 1863 ft | 151 kts | 109° |
| 2026-04-28 02:20 | -12.38895 | 130.80445 | 1806 ft | 146 kts | 108° |
| 2026-04-28 02:20 | -12.39215 | 130.81370 | 1557 ft | 125 kts | 107° |
| 2026-04-28 02:21 | -12.39480 | 130.82175 | 1107 ft | 117 kts | 109° |
| 2026-04-28 02:21 | -12.39729 | 130.82988 | 854 ft | 123 kts | 110° |
| 2026-04-28 02:21 | -12.40022 | 130.83841 | 679 ft | 130 kts | 110° |
| 2026-04-28 02:21 | -12.40335 | 130.84719 | 538 ft | 131 kts | 107° |
| 2026-04-28 02:22 | -12.40628 | 130.85602 | 374 ft | 131 kts | 107° |
| 2026-04-28 02:22 | -12.40944 | 130.86554 | 527 ft | 145 kts | 106° |
| 2026-04-28 02:22 | -12.41274 | 130.87571 | 874 ft | 163 kts | 107° |
| 2026-04-28 02:22 | -12.41653 | 130.88765 | 1252 ft | 188 kts | 107° |
| 2026-04-28 02:23 | -12.42118 | 130.90101 | 1654 ft | 223 kts | 111° |
| 2026-04-28 02:23 | -12.42683 | 130.91683 | 2054 ft | 239 kts | 109° |
| 2026-04-28 02:23 | -12.43214 | 130.93282 | 2450 ft | 236 kts | 109° |
| 2026-04-28 02:23 | -12.43735 | 130.94861 | 2828 ft | 233 kts | 109° |
| 2026-04-28 02:24 | -12.44259 | 130.96423 | 3191 ft | 231 kts | 109° |
| 2026-04-28 02:24 | -12.44783 | 130.97984 | 3443 ft | 236 kts | 109° |
| 2026-04-28 02:24 | -12.45328 | 130.99616 | 3295 ft | 244 kts | 109° |
| 2026-04-28 02:24 | -12.45874 | 131.01259 | 3134 ft | 241 kts | 109° |
| 2026-04-28 02:25 | -12.46409 | 131.02858 | 2979 ft | 235 kts | 108° |
| 2026-04-28 02:25 | -12.46918 | 131.04410 | 2968 ft | 224 kts | 107° |
| 2026-04-28 02:25 | -12.46982 | 131.05964 | 2954 ft | 221 kts | 78° |
| 2026-04-28 02:25 | -12.46365 | 131.07399 | 2955 ft | 221 kts | 65° |
| 2026-04-28 02:26 | -12.45645 | 131.08778 | 2956 ft | 218 kts | 66° |
| 2026-04-28 02:26 | -12.44984 | 131.10145 | 2956 ft | 217 kts | 67° |
| 2026-04-28 02:26 | -12.44352 | 131.11538 | 2949 ft | 215 kts | 71° |
| 2026-04-28 02:26 | -12.44209 | 131.13026 | 2951 ft | 207 kts | 103° |
| 2026-04-28 02:27 | -12.44844 | 131.14309 | 2952 ft | 207 kts | 130° |
| 2026-04-28 02:27 | -12.46049 | 131.15105 | 2954 ft | 211 kts | 158° |
| 2026-04-28 02:27 | -12.47540 | 131.15145 | 2949 ft | 223 kts | 188° |
| 2026-04-28 02:27 | -12.48893 | 131.14312 | 2950 ft | 236 kts | 222° |
| 2026-04-28 02:28 | -12.49665 | 131.12817 | 2953 ft | 244 kts | 255° |
| 2026-04-28 02:28 | -12.49598 | 131.11099 | 2952 ft | 246 kts | 288° |
| 2026-04-28 02:28 | -12.48833 | 131.09527 | 2963 ft | 248 kts | 302° |
| 2026-04-28 02:28 | -12.48065 | 131.07923 | 2974 ft | 254 kts | 292° |
| 2026-04-28 02:29 | -12.47462 | 131.06205 | 2972 ft | 259 kts | 289° |
| 2026-04-28 02:29 | -12.46869 | 131.04449 | 2973 ft | 262 kts | 288° |
| 2026-04-28 02:29 | -12.46260 | 131.02697 | 2975 ft | 261 kts | 289° |
| 2026-04-28 02:29 | -12.45658 | 131.00944 | 2974 ft | 261 kts | 289° |
| 2026-04-28 02:30 | -12.45066 | 130.99188 | 2974 ft | 261 kts | 289° |
| 2026-04-28 02:30 | -12.44474 | 130.97435 | 2974 ft | 261 kts | 289° |
| 2026-04-28 02:30 | -12.43877 | 130.95670 | 2972 ft | 262 kts | 289° |
| 2026-04-28 02:30 | -12.43273 | 130.93905 | 2974 ft | 264 kts | 289° |
| 2026-04-28 02:31 | -12.42657 | 130.92133 | 2975 ft | 265 kts | 289° |
| 2026-04-28 02:31 | -12.41952 | 130.90394 | 2972 ft | 266 kts | 296° |
| 2026-04-28 02:31 | -12.41069 | 130.88730 | 2972 ft | 266 kts | 303° |
| 2026-04-28 02:31 | -12.40015 | 130.87172 | 2968 ft | 265 kts | 307° |
| 2026-04-28 02:32 | -12.38925 | 130.85677 | 2794 ft | 255 kts | 307° |
| 2026-04-28 02:32 | -12.37918 | 130.84234 | 2606 ft | 245 kts | 306° |
| 2026-04-28 02:32 | -12.36964 | 130.82823 | 2386 ft | 236 kts | 306° |
| 2026-04-28 02:32 | -12.36056 | 130.81489 | 2180 ft | 226 kts | 306° |
| 2026-04-28 02:33 | -12.35180 | 130.80210 | 1974 ft | 214 kts | 307° |
| 2026-04-28 02:33 | -12.34352 | 130.79005 | 1862 ft | 199 kts | 306° |
| 2026-04-28 02:33 | -12.33558 | 130.77861 | 1852 ft | 195 kts | 310° |
| 2026-04-28 02:33 | -12.32645 | 130.76863 | 1856 ft | 191 kts | 310° |
| 2026-04-28 02:34 | -12.31930 | 130.75731 | 1843 ft | 192 kts | 290° |
| 2026-04-28 02:34 | -12.31913 | 130.74378 | 1852 ft | 196 kts | 248° |
| 2026-04-28 02:34 | -12.32723 | 130.73302 | 1850 ft | 192 kts | 207° |
| 2026-04-28 02:34 | -12.33964 | 130.73002 | 1854 ft | 182 kts | 168° |
| 2026-04-28 02:35 | -12.35104 | 130.73499 | 1865 ft | 180 kts | 141° |
| 2026-04-28 02:35 | -12.36084 | 130.74307 | 1878 ft | 182 kts | 133° |
| 2026-04-28 02:35 | -12.36902 | 130.75295 | 1878 ft | 183 kts | 124° |
| 2026-04-28 02:35 | -12.37499 | 130.76453 | 1873 ft | 184 kts | 112° |
| 2026-04-28 02:36 | -12.37937 | 130.77642 | 1868 ft | 169 kts | 110° |
| 2026-04-28 02:36 | -12.38316 | 130.78731 | 1696 ft | 160 kts | 108° |
| 2026-04-28 02:36 | -12.38674 | 130.79805 | 1381 ft | 159 kts | 110° |
| 2026-04-28 02:36 | -12.39023 | 130.80844 | 1144 ft | 142 kts | 110° |
| 2026-04-28 02:37 | -12.39328 | 130.81742 | 947 ft | 129 kts | 111° |
| 2026-04-28 02:37 | -12.39615 | 130.82598 | 768 ft | 126 kts | 110° |
| 2026-04-28 02:37 | -12.39898 | 130.83434 | 659 ft | 126 kts | 108° |
| 2026-04-28 02:37 | -12.40186 | 130.84293 | 541 ft | 125 kts | 107° |
| 2026-04-28 02:38 | -12.40457 | 130.85085 | 467 ft | 114 kts | 107° |
| 2026-04-28 02:38 | -12.40711 | 130.85837 | 455 ft | 111 kts | 107° |
| 2026-04-28 02:38 | -12.40964 | 130.86609 | 458 ft | 120 kts | 108° |
| 2026-04-28 02:38 | -12.41252 | 130.87453 | 464 ft | 134 kts | 109° |
| 2026-04-28 02:39 | -12.41563 | 130.88384 | 612 ft | 146 kts | 108° |
| 2026-04-28 02:39 | -12.41933 | 130.89504 | 839 ft | 186 kts | 108° |
| 2026-04-28 02:39 | -12.42416 | 130.90936 | 1179 ft | 234 kts | 109° |
| 2026-04-28 02:39 | -12.42977 | 130.92602 | 1521 ft | 255 kts | 109° |
| 2026-04-28 02:40 | -12.43538 | 130.94264 | 1842 ft | 233 kts | 108° |
| 2026-04-28 02:40 | -12.44040 | 130.95762 | 2113 ft | 219 kts | 108° |
| 2026-04-28 02:40 | -12.44518 | 130.97195 | 2370 ft | 209 kts | 108° |
| 2026-04-28 02:40 | -12.44988 | 130.98596 | 2618 ft | 207 kts | 108° |
| 2026-04-28 02:41 | -12.45453 | 130.99997 | 2864 ft | 210 kts | 109° |
| 2026-04-28 02:41 | -12.45935 | 131.01440 | 2962 ft | 220 kts | 109° |
| 2026-04-28 02:41 | -12.46441 | 131.02954 | 2973 ft | 228 kts | 109° |
| 2026-04-28 02:41 | -12.46950 | 131.04521 | 2970 ft | 235 kts | 105° |
| 2026-04-28 02:42 | -12.46985 | 131.06199 | 2968 ft | 242 kts | 78° |
| 2026-04-28 02:42 | -12.46580 | 131.07270 | 2971 ft | 247 kts | 66° |
| 2026-04-28 02:42 | -12.45745 | 131.08825 | 2968 ft | 251 kts | 63° |
| 2026-04-28 02:42 | -12.44908 | 131.10403 | 2966 ft | 253 kts | 66° |
| 2026-04-28 02:43 | -12.44170 | 131.12031 | 2964 ft | 252 kts | 71° |
| 2026-04-28 02:43 | -12.43959 | 131.13779 | 2943 ft | 248 kts | 98° |
| 2026-04-28 02:43 | -12.44620 | 131.15383 | 2945 ft | 247 kts | 127° |
| 2026-04-28 02:43 | -12.45979 | 131.16435 | 2950 ft | 250 kts | 154° |
| 2026-04-28 02:44 | -12.47714 | 131.16681 | 2947 ft | 259 kts | 181° |
| 2026-04-28 02:44 | -12.49425 | 131.16034 | 2946 ft | 270 kts | 209° |
| 2026-04-28 02:44 | -12.50716 | 131.14603 | 2946 ft | 279 kts | 237° |
| 2026-04-28 02:44 | -12.51264 | 131.12702 | 2946 ft | 283 kts | 265° |
| 2026-04-28 02:45 | -12.50938 | 131.10727 | 2945 ft | 284 kts | 292° |
| 2026-04-28 02:45 | -12.49857 | 131.09055 | 2954 ft | 282 kts | 312° |
| 2026-04-28 02:45 | -12.48575 | 131.07537 | 2962 ft | 282 kts | 310° |
| 2026-04-28 02:45 | -12.47439 | 131.05926 | 2963 ft | 283 kts | 303° |
| 2026-04-28 02:46 | -12.46367 | 131.04239 | 2971 ft | 282 kts | 304° |
| 2026-04-28 02:46 | -12.45268 | 131.02574 | 2970 ft | 283 kts | 305° |
| 2026-04-28 02:46 | -12.44313 | 131.00823 | 2967 ft | 283 kts | 291° |
| 2026-04-28 02:46 | -12.43758 | 130.98898 | 2970 ft | 282 kts | 282° |
| 2026-04-28 02:47 | -12.43402 | 130.96932 | 2970 ft | 279 kts | 279° |
| 2026-04-28 02:47 | -12.43047 | 130.94993 | 2971 ft | 276 kts | 280° |
| 2026-04-28 02:47 | -12.42691 | 130.93074 | 2969 ft | 274 kts | 280° |
| 2026-04-28 02:47 | -12.42329 | 130.91170 | 2963 ft | 271 kts | 282° |
| 2026-04-28 02:48 | -12.41570 | 130.89417 | 2957 ft | 270 kts | 301° |
| 2026-04-28 02:48 | -12.40540 | 130.87813 | 2962 ft | 269 kts | 305° |
| 2026-04-28 02:48 | -12.39409 | 130.86288 | 2890 ft | 269 kts | 310° |
| 2026-04-28 02:48 | -12.38277 | 130.84765 | 2700 ft | 267 kts | 306° |
| 2026-04-28 02:49 | -12.37214 | 130.83188 | 2497 ft | 270 kts | 305° |
| 2026-04-28 02:49 | -12.36162 | 130.81637 | 2310 ft | 267 kts | 306° |
| 2026-04-28 02:49 | -12.35097 | 130.80093 | 2114 ft | 264 kts | 306° |
| 2026-04-28 02:49 | -12.34049 | 130.78568 | 1916 ft | 261 kts | 305° |
| 2026-04-28 02:50 | -12.33025 | 130.77064 | 1863 ft | 253 kts | 306° |
| 2026-04-28 02:50 | -12.32027 | 130.75609 | 1857 ft | 246 kts | 306° |
| 2026-04-28 02:50 | -12.31218 | 130.74099 | 1847 ft | 241 kts | 285° |
| 2026-04-28 02:50 | -12.31224 | 130.72425 | 1844 ft | 235 kts | 251° |
| 2026-04-28 02:51 | -12.32062 | 130.71057 | 1849 ft | 227 kts | 219° |
| 2026-04-28 02:51 | -12.33441 | 130.70390 | 1848 ft | 214 kts | 184° |
| 2026-04-28 02:51 | -12.34806 | 130.70617 | 1851 ft | 192 kts | 148° |
| 2026-04-28 02:51 | -12.35690 | 130.71535 | 1851 ft | 176 kts | 122° |
| 2026-04-28 02:52 | -12.36198 | 130.72616 | 1848 ft | 163 kts | 112° |
| 2026-04-28 02:52 | -12.36612 | 130.73714 | 1853 ft | 172 kts | 109° |
| 2026-04-28 02:52 | -12.37025 | 130.74908 | 1857 ft | 182 kts | 108° |
| 2026-04-28 02:52 | -12.37429 | 130.76106 | 1858 ft | 169 kts | 108° |
| 2026-04-28 02:53 | -12.37798 | 130.77199 | 1853 ft | 158 kts | 108° |
| 2026-04-28 02:53 | -12.38145 | 130.78233 | 1844 ft | 151 kts | 109° |
| 2026-04-28 02:53 | -12.38492 | 130.79264 | 1652 ft | 153 kts | 110° |
| 2026-04-28 02:53 | -12.38839 | 130.80292 | 1444 ft | 153 kts | 110° |
| 2026-04-28 02:54 | -12.39185 | 130.81323 | 1246 ft | 153 kts | 110° |
| 2026-04-28 02:54 | -12.39527 | 130.82338 | 1043 ft | 147 kts | 109° |
| 2026-04-28 02:54 | -12.39856 | 130.83312 | 824 ft | 143 kts | 108° |
| 2026-04-28 02:54 | -12.40175 | 130.84260 | 594 ft | 137 kts | 108° |
| 2026-04-28 02:55 | -12.40457 | 130.85114 | 452 ft | 119 kts | 106° |
| 2026-04-28 02:55 | -12.40724 | 130.85895 | 259 ft | 115 kts | 109° |
| 2026-04-28 02:55 | -12.40987 | 130.86675 | 136 ft | 117 kts | 108° |
| 2026-04-28 02:55 | -12.41237 | 130.87422 | 96 ft | 102 kts | 109° |
| 2026-04-28 02:56 | -12.41403 | 130.87905 | 94 ft | 19 kts | 108° |
| 2026-04-28 02:56 | -12.41377 | 130.88002 | 91 ft | 18 kts | 29° |
| 2026-04-28 02:56 | -12.41250 | 130.88048 | 93 ft | 21 kts | 18° |
| 2026-04-28 02:56 | -12.41130 | 130.88090 | 95 ft | 13 kts | 20° |
| 2026-04-28 02:57 | -12.41107 | 130.88188 | 91 ft | 19 kts | 108° |
| 2026-04-28 02:57 | -12.41142 | 130.88293 | 87 ft | 9 kts | 109° |
| 2026-04-28 02:57 | -12.41107 | 130.88336 | 87 ft | 9 kts | 18° |
| 2026-04-28 02:57 | -12.41090 | 130.88342 | 85 ft | 2 kts | 20° |
| 2026-04-28 02:58 | -12.41075 | 130.88327 | 85 ft | 3 kts | 291° |
| 2026-04-28 02:58 | -12.41061 | 130.88337 | 87 ft | 0 kts | 108° |